Metar/Speci

METEOROLOGICAL AERODROME REPORT
STASIUN METEOROLOGI HANG NADIM BATAM
ADDS - METARS form results

Aviation Digital Data Service (ADDS)

Output produced by METARs form (0015 UTC 08 December 2022)
found at http://www.aviationweather.gov/metar/data/
 
METAR text: WIDD 080000Z 00000KT 9999 FEW014 26/25 Q1009 NOSIG
Conditions at: WIDD (HANG NADIM , ID) observed 0000 UTC 08 December 2022
Temperature: 26.0°C (79°F)
Dewpoint: 25.0°C (77°F) [RH = 94%]
Pressure (altimeter): 29.79 inches Hg (1009.0 mb)
Winds: calm
Visibility: 6 or more miles (10+ km)
Ceiling: at least 12,000 feet AGL
Clouds: few clouds at 1400 feet AGL
Weather: no significant weather observed at this time

METAR text: WIDD 072330Z 30002KT 9999 FEW014 26/25 Q1009 NOSIG
Conditions at: WIDD (HANG NADIM , ID) observed 2330 UTC 07 December 2022
Temperature: 26.0°C (79°F)
Dewpoint: 25.0°C (77°F) [RH = 94%]
Pressure (altimeter): 29.79 inches Hg (1009.0 mb)
Winds: from the WNW (300 degrees) at 2 MPH (2 knots; 1.0 m/s)
Visibility: 6 or more miles (10+ km)
Ceiling: at least 12,000 feet AGL
Clouds: few clouds at 1400 feet AGL
Weather: no significant weather observed at this time

Forecast for: WIDD (HANG NADIM , ID)
Text: TAF WIDD 072300Z 0800/0824 33004KT 9000 FEW014
Forecast period: 0000 to 0100 UTC 08 December 2022
Forecast type: FROM: standard forecast or significant change
Winds: from the NNW (330 degrees) at 5 MPH (4 knots; 2.1 m/s)
Visibility: 6 miles (9 km)
Ceiling: at least 12,000 feet AGL
Clouds: few clouds at 1400 feet AGL
Weather: no significant weather forecast for this period
Text: BECMG 0801/0803 33008KT SCT014
Forecast period: 0100 UTC 08 December 2022 to 0000 UTC 09 December 2022
Forecast type: BECOMING: Conditions expected to become as follows by 0300 UTC 08 December 2022
Winds: from the NNW (330 degrees) at 9 MPH (8 knots; 4.1 m/s)
Visibility: 6 miles (9 km)
Ceiling: at least 12,000 feet AGL
Clouds: scattered clouds at 1400 feet AGL
Weather: no significant weather forecast for this period

Informasi METAR/SPECI dapat diakses juga di http://aviation.bmkg.go.id